Fort Deposit, Alabama
Current Conditions -  °F | °C
As of 1:56 AM on Friday 28 Nov 2014 (Local Time) from KPRN Reporting Station
Clear Clear  
Wind Chill: 27°   Ceiling: Unl
Heat Index: 34°   Visibility: 10mi
Dew Point: 28°   Wind: 8mph
Humidity: 79%   Direction: 360°N
Pressure: 30.4"   Gusts: NA
Location:  31.98°N, 86.58°W
Report Text: KPRN 280756Z AUTO 36007KT 10SM CLR 01/M02 A3040 RMK AO2 SLP295 T00111022 FZRANO
Loading
Personal Weather Stations






























Interactive Weather Map New forecast layout! Learn more

10-Day Weather Forecast

Advertisements
Track Severe Weather on mobile